Portada
METAR-TAF:

METAR-TAF

Aeroports :

Branch County Memorial Airport

Coldwater, Michigan, Estats Units d'Amèrica

latitud: 41-56N, longitud: 085-03-09W, altitud: 292 m

Observació

L'informe es va fer fa 17 minuts, a les 01:55 UTC
Vent calma
Temperatura 20°C
Humitat 100%
Pressió 1015 hPa
Visibilitat: 16.1 km
Núvols disperses a una alçada de 7000 ft
Núvols disperses a una alçada de 11000 ft

METAR: KOEB 280155Z AUTO 00000KT 10SM SCT070 SCT110 20/20 A2996 RMK AO2

Hora: 22:12 (02:12 UTC)


TAF: manca

Observacions i pronòstics meteorològics de més de 4000 aeroports (METAR i TAF).

Les estacions disponibles són els punts grocs i vermells al mapa.

Posi el ratolí al punt desitjat per veure el nom de l'estació.

Feu clic per veure les observacions i els pronòstics meteorològics.

Per canviar el mapa: feu clic els botons verds amb una creu de color negre per apropar; al botó verd amb un guió per allunyar la imatge; o en les fletxes verdes per a mapes adjacents.


METAR-TAF: